Sport Tracks Activity Report
Ort Arber Radmarathon Datum 26.07.2009 08:26:40
Kategorie Straße
Distanz 50,60 Kilometer Steigung 0,3 Meter Gefälle -4,1 Meter
Gesamt Zeit 01:46:26 Aktiv 01:46:26 Pause 00:00:00
Durchs. Tempo 28,5 km/h Tempo max. 36,6 km/h Tempo min. 0,2 km/h
Kalorien 1836 Durchs. HF 127 BPM HF max. 160 BPM
Wetter 25 °C ChanceRain
Ausrüstung Speedbike
Notiz Arber Radmarathon Route D. Erst im Pulk gut mitgefahren, nach der Verpflegung alleine gekämpft bis ich kurz vorm Schluss wieder die erste Gruppe eingeholt hatte. Check den Puls.
Splits
Distanz (km) Gesamt Zeit Split Zeit Split Tempo Split Tempo Höhenprofil (m)
1,00 00:03:26 00:03:26 00:03:26 17,5 0,87
2,00 00:05:27 00:02:01 00:02:01 29,8 -1,34
3,00 00:07:23 00:01:56 00:01:56 31,0 1,26
4,00 00:09:14 00:01:51 00:01:51 32,4 -2,35
5,00 00:11:34 00:02:20 00:02:20 25,7 -1,13
6,00 00:13:54 00:02:20 00:02:20 25,7 2,13
7,00 00:16:09 00:02:15 00:02:15 26,7 -2,97
8,00 00:17:52 00:01:43 00:01:43 35,0 -0,83
9,00 00:19:41 00:01:49 00:01:49 33,0 -2,06
10,00 00:21:32 00:01:51 00:01:51 32,4 0,37
11,00 00:23:29 00:01:57 00:01:57 30,8 13,04
12,00 00:25:23 00:01:54 00:01:54 31,6 -7,15
13,00 00:27:16 00:01:53 00:01:53 31,9 3,54
14,00 00:29:15 00:01:59 00:01:59 30,3 -9,52
15,00 00:31:13 00:01:58 00:01:58 30,5 -1,66
16,00 00:33:13 00:02:00 00:02:00 30,0 -0,42
17,00 00:35:13 00:02:00 00:02:00 30,0 -0,90
18,00 00:37:11 00:01:58 00:01:58 30,5 3,43
19,00 00:39:05 00:01:54 00:01:54 31,6 0,33
20,00 00:41:01 00:01:56 00:01:56 31,0 -1,77
21,00 00:42:52 00:01:51 00:01:51 32,4 -1,00
22,00 00:44:45 00:01:53 00:01:53 31,9 2,25
23,00 00:49:31 00:04:46 00:04:46 12,6 -3,73
24,00 00:51:25 00:01:54 00:01:54 31,6 -0,47
25,00 00:53:29 00:02:04 00:02:04 29,0 4,84
26,00 00:55:28 00:01:59 00:01:59 30,3 -4,22
27,00 00:57:16 00:01:48 00:01:48 33,3 0,05
28,00 00:59:09 00:01:53 00:01:53 31,9 2,04
29,00 01:01:24 00:02:15 00:02:15 26,7 0,56
30,00 01:03:14 00:01:50 00:01:50 32,7 -0,95
31,00 01:05:09 00:01:55 00:01:55 31,3 0,84
32,00 01:07:05 00:01:56 00:01:56 31,0 1,22
33,00 01:08:59 00:01:54 00:01:54 31,6 -0,84
34,00 01:10:55 00:01:56 00:01:56 31,0 -0,02
35,00 01:12:56 00:02:01 00:02:01 29,8 1,73
36,00 01:14:54 00:01:58 00:01:58 30,5 -3,20
37,00 01:16:51 00:01:57 00:01:57 30,8 1,78
38,00 01:19:05 00:02:14 00:02:14 26,9 9,89
39,00 01:20:54 00:01:49 00:01:49 33,0 -5,14
40,00 01:22:42 00:01:48 00:01:48 33,3 5,99
41,00 01:24:32 00:01:50 00:01:50 32,7 -10,18
42,00 01:26:26 00:01:54 00:01:54 31,6 0,02
43,00 01:28:18 00:01:52 00:01:52 32,1 3,24
44,00 01:30:26 00:02:08 00:02:08 28,1 0,37
45,00 01:32:29 00:02:03 00:02:03 29,3 -0,81
46,00 01:34:33 00:02:04 00:02:04 29,0 -0,42
47,00 01:37:17 00:02:44 00:02:44 22,0 3,17
48,00 01:39:30 00:02:13 00:02:13 27,1 -1,61
49,00 01:42:02 00:02:32 00:02:32 23,7 -1,90
50,00 01:45:04 00:03:02 00:03:02 19,8 9,48